Kagoshima Airport
RJFK : rendu visible

Aérodrome :











RETROUVEZ-NOUS SUR...

 
LOGIN :

S'inscrire | Disclaimer

   EN    FR    IT 

 









Légende :    VFR   VFR Marginal   IFR   IFR Intensif   IFR Très Intensif
Visi : 
Plafond : 
>= 8 km
>= 3000ft
5 à 8 km
1000 à 3000 ft
1500m à 5 km
500 à 1000 ft
800 à 1500m
200 à 500 ft
< 800m
< 200 ft
Symboles :   Orages  Brouillard  Fortes neiges  Fortes précipitations  Vent > 20 kt







- Altitude de l'aérodrome : 906 ft
- Code IATA : KOJ


RJFK - Kagoshima

DERNIER METAR :
  • 200800Z 14010KT 9999 FEW020 BKN030 18/09 Q1014

METARs EXPIRÉS :
  • 200700Z 14009KT 100V170 9999 FEW030 BKN/// 19/08 Q1015 RMK 1CU030 A2997 VOLCANIC ASH CLOUD S
  • 200600Z 16011KT 120V190 9999 FEW030 BKN/// 19/06 Q1015 RMK 1CU030 A2997 VOLCANIC ASH CLOUD S

TAF TAF RJFK
Valide du 20 à 06h jusqu'au 21 à 12h UTC


200510Z 2006/2112 14009KT 9999 FEW025
TEMPO 2018/2021 3000 SHRA BR FEW005 BKN008 BKN015
TEMPO 2021/2100 1500 TSRA BR FEW005 BKN008 BKN015 FEW025CB
BECMG 2100/2103 30010KT
TEMPO 2100/2103 4000 -SHRA BR FEW005 BKN008 BKN015
FIR RJJJ / Asie



MET'MAP, la Météo Aéronautique d'un coup d'oeil ! - Copyright ORBIFLY Décembre 2007 - Disclaimer

ORBIFLY MET'MAP TEAM :

Programmation & Développement : Alexandra Zaïnal
Conception & Développement : Baudouin d'Aumeries
Co-Programmation & Développement : Marc-Olivier Méhu
Soutien technique & logistique : Manuel Goepfert

Contact : metmap@orbifly.com




SOURCES & CREDITS :

   NOAA       Earth
Advisory